sensor_id;sensor_type;location;lat;lon;timestamp;temperature;humidity
14737;DHT22;7459;53.590;10.062;2023-12-04T00:00:35;0.10;99.90
14737;DHT22;7459;53.590;10.062;2023-12-04T00:03:01;0.10;99.90
14737;DHT22;7459;53.590;10.062;2023-12-04T00:05:27;0.10;99.90
14737;DHT22;7459;53.590;10.062;2023-12-04T00:07:53;0.10;99.90
14737;DHT22;7459;53.590;10.062;2023-12-04T00:10:18;0.10;99.90
14737;DHT22;7459;53.590;10.062;2023-12-04T00:12:44;0.10;99.90
14737;DHT22;7459;53.590;10.062;2023-12-04T00:15:10;0.00;99.90
14737;DHT22;7459;53.590;10.062;2023-12-04T00:17:36;0.00;99.90
14737;DHT22;7459;53.590;10.062;2023-12-04T00:20:06;0.00;99.90
14737;DHT22;7459;53.590;10.062;2023-12-04T00:22:32;0.00;99.90
14737;DHT22;7459;53.590;10.062;2023-12-04T00:24:58;0.00;99.90
14737;DHT22;7459;53.590;10.062;2023-12-04T00:27:23;-0.10;99.90
14737;DHT22;7459;53.590;10.062;2023-12-04T00:29:52;-0.10;99.90
14737;DHT22;7459;53.590;10.062;2023-12-04T00:32:18;-0.10;99.90
14737;DHT22;7459;53.590;10.062;2023-12-04T00:34:44;-0.10;99.90
14737;DHT22;7459;53.590;10.062;2023-12-04T00:37:09;-0.20;99.90
14737;DHT22;7459;53.590;10.062;2023-12-04T00:39:35;-0.20;99.90
14737;DHT22;7459;53.590;10.062;2023-12-04T00:42:01;-0.20;99.90
14737;DHT22;7459;53.590;10.062;2023-12-04T00:44:26;-0.20;99.90
14737;DHT22;7459;53.590;10.062;2023-12-04T00:46:52;-0.30;99.90
14737;DHT22;7459;53.590;10.062;2023-12-04T00:49:18;-0.20;99.90
14737;DHT22;7459;53.590;10.062;2023-12-04T00:51:44;-0.30;99.90
14737;DHT22;7459;53.590;10.062;2023-12-04T00:54:10;-0.30;99.90
14737;DHT22;7459;53.590;10.062;2023-12-04T00:56:39;-0.30;99.90
14737;DHT22;7459;53.590;10.062;2023-12-04T00:59:07;-0.30;99.90
14737;DHT22;7459;53.590;10.062;2023-12-04T01:01:33;-0.30;99.90
14737;DHT22;7459;53.590;10.062;2023-12-04T01:04:00;-0.40;99.90
14737;DHT22;7459;53.590;10.062;2023-12-04T01:06:26;-0.40;99.90
14737;DHT22;7459;53.590;10.062;2023-12-04T01:08:53;-0.40;99.90
14737;DHT22;7459;53.590;10.062;2023-12-04T01:11:19;-0.40;99.90
14737;DHT22;7459;53.590;10.062;2023-12-04T01:13:45;-0.40;99.90
14737;DHT22;7459;53.590;10.062;2023-12-04T01:16:11;-0.40;99.90
14737;DHT22;7459;53.590;10.062;2023-12-04T01:18:37;-0.40;99.90
14737;DHT22;7459;53.590;10.062;2023-12-04T01:21:03;-0.40;99.90
14737;DHT22;7459;53.590;10.062;2023-12-04T01:23:28;-0.40;99.90
14737;DHT22;7459;53.590;10.062;2023-12-04T01:25:54;-0.40;99.90
14737;DHT22;7459;53.590;10.062;2023-12-04T01:28:20;-0.40;99.90
14737;DHT22;7459;53.590;10.062;2023-12-04T01:30:46;-0.40;99.90
14737;DHT22;7459;53.590;10.062;2023-12-04T01:33:11;-0.50;99.90
14737;DHT22;7459;53.590;10.062;2023-12-04T01:35:37;-0.50;99.90
14737;DHT22;7459;53.590;10.062;2023-12-04T01:38:03;-0.50;99.90
14737;DHT22;7459;53.590;10.062;2023-12-04T01:40:28;-0.50;99.90
14737;DHT22;7459;53.590;10.062;2023-12-04T01:42:54;-0.50;99.90
14737;DHT22;7459;53.590;10.062;2023-12-04T01:45:20;-0.50;99.90
14737;DHT22;7459;53.590;10.062;2023-12-04T01:47:48;-0.50;99.90
14737;DHT22;7459;53.590;10.062;2023-12-04T01:50:14;-0.50;99.90
14737;DHT22;7459;53.590;10.062;2023-12-04T01:52:41;-0.50;99.90
14737;DHT22;7459;53.590;10.062;2023-12-04T01:55:08;-0.50;99.90
14737;DHT22;7459;53.590;10.062;2023-12-04T01:57:35;-0.50;99.90
14737;DHT22;7459;53.590;10.062;2023-12-04T02:00:01;-0.50;99.90
14737;DHT22;7459;53.590;10.062;2023-12-04T02:02:28;-0.60;99.90
14737;DHT22;7459;53.590;10.062;2023-12-04T02:04:55;-0.60;99.90
14737;DHT22;7459;53.590;10.062;2023-12-04T02:07:23;-0.60;99.90
14737;DHT22;7459;53.590;10.062;2023-12-04T02:09:49;-0.60;99.90
14737;DHT22;7459;53.590;10.062;2023-12-04T02:12:16;-0.60;99.90
14737;DHT22;7459;53.590;10.062;2023-12-04T02:14:42;-0.60;99.90
14737;DHT22;7459;53.590;10.062;2023-12-04T02:17:08;-0.60;99.90
14737;DHT22;7459;53.590;10.062;2023-12-04T02:19:35;-0.60;99.90
14737;DHT22;7459;53.590;10.062;2023-12-04T02:22:01;-0.60;99.90
14737;DHT22;7459;53.590;10.062;2023-12-04T02:24:27;-0.60;99.90
14737;DHT22;7459;53.590;10.062;2023-12-04T02:26:56;-0.60;99.90
14737;DHT22;7459;53.590;10.062;2023-12-04T02:29:30;-0.60;99.90
14737;DHT22;7459;53.590;10.062;2023-12-04T02:31:58;-0.60;99.90
14737;DHT22;7459;53.590;10.062;2023-12-04T02:34:29;-0.60;99.90
14737;DHT22;7459;53.590;10.062;2023-12-04T02:36:55;-0.60;99.90
14737;DHT22;7459;53.590;10.062;2023-12-04T02:39:22;-0.60;99.90
14737;DHT22;7459;53.590;10.062;2023-12-04T02:41:48;-0.50;99.90
14737;DHT22;7459;53.590;10.062;2023-12-04T02:44:14;-0.50;99.90
14737;DHT22;7459;53.590;10.062;2023-12-04T02:46:40;-0.50;99.90
14737;DHT22;7459;53.590;10.062;2023-12-04T02:49:05;-0.60;99.90
14737;DHT22;7459;53.590;10.062;2023-12-04T02:51:31;-0.60;99.90
14737;DHT22;7459;53.590;10.062;2023-12-04T02:53:57;-0.60;99.90
14737;DHT22;7459;53.590;10.062;2023-12-04T02:56:22;-0.60;99.90
14737;DHT22;7459;53.590;10.062;2023-12-04T02:58:48;-0.60;99.90
14737;DHT22;7459;53.590;10.062;2023-12-04T03:01:14;-0.60;99.90
14737;DHT22;7459;53.590;10.062;2023-12-04T03:06:11;-0.60;99.90
14737;DHT22;7459;53.590;10.062;2023-12-04T03:08:37;-0.60;99.90
14737;DHT22;7459;53.590;10.062;2023-12-04T03:11:03;-0.60;99.90
14737;DHT22;7459;53.590;10.062;2023-12-04T03:13:29;-0.60;99.90
14737;DHT22;7459;53.590;10.062;2023-12-04T03:15:54;-0.60;99.90
14737;DHT22;7459;53.590;10.062;2023-12-04T03:18:20;-0.60;99.90
14737;DHT22;7459;53.590;10.062;2023-12-04T03:20:48;-0.60;99.90
14737;DHT22;7459;53.590;10.062;2023-12-04T03:23:14;-0.60;99.90
14737;DHT22;7459;53.590;10.062;2023-12-04T03:25:39;-0.50;99.90
14737;DHT22;7459;53.590;10.062;2023-12-04T03:28:05;-0.60;99.90
14737;DHT22;7459;53.590;10.062;2023-12-04T03:30:31;-0.50;99.90
14737;DHT22;7459;53.590;10.062;2023-12-04T03:32:56;-0.50;99.90
14737;DHT22;7459;53.590;10.062;2023-12-04T03:35:22;-0.60;99.90
14737;DHT22;7459;53.590;10.062;2023-12-04T03:37:48;-0.50;99.90
14737;DHT22;7459;53.590;10.062;2023-12-04T03:40:15;-0.50;99.90
14737;DHT22;7459;53.590;10.062;2023-12-04T03:42:41;-0.50;99.90
14737;DHT22;7459;53.590;10.062;2023-12-04T03:45:07;-0.50;99.90
14737;DHT22;7459;53.590;10.062;2023-12-04T03:47:33;-0.50;99.90
14737;DHT22;7459;53.590;10.062;2023-12-04T03:49:59;-0.50;99.90
14737;DHT22;7459;53.590;10.062;2023-12-04T03:52:24;-0.50;99.90
14737;DHT22;7459;53.590;10.062;2023-12-04T03:54:50;-0.50;99.90
14737;DHT22;7459;53.590;10.062;2023-12-04T03:57:16;-0.50;99.90
14737;DHT22;7459;53.590;10.062;2023-12-04T03:59:43;-0.50;99.90
14737;DHT22;7459;53.590;10.062;2023-12-04T04:02:09;-0.50;99.90
14737;DHT22;7459;53.590;10.062;2023-12-04T04:04:34;-0.50;99.90
14737;DHT22;7459;53.590;10.062;2023-12-04T04:07:00;-0.50;99.90
14737;DHT22;7459;53.590;10.062;2023-12-04T04:09:25;-0.50;99.90
14737;DHT22;7459;53.590;10.062;2023-12-04T04:11:51;-0.50;99.90
14737;DHT22;7459;53.590;10.062;2023-12-04T04:14:17;-0.50;99.90
14737;DHT22;7459;53.590;10.062;2023-12-04T04:16:42;-0.50;99.90
14737;DHT22;7459;53.590;10.062;2023-12-04T04:19:08;-0.50;99.90
14737;DHT22;7459;53.590;10.062;2023-12-04T04:21:34;-0.50;99.90
14737;DHT22;7459;53.590;10.062;2023-12-04T04:24:00;-0.50;99.90
14737;DHT22;7459;53.590;10.062;2023-12-04T04:26:26;-0.50;99.90
14737;DHT22;7459;53.590;10.062;2023-12-04T04:28:51;-0.50;99.90
14737;DHT22;7459;53.590;10.062;2023-12-04T04:31:17;-0.50;99.90
14737;DHT22;7459;53.590;10.062;2023-12-04T04:33:43;-0.50;99.90
14737;DHT22;7459;53.590;10.062;2023-12-04T04:36:11;-0.50;99.90
14737;DHT22;7459;53.590;10.062;2023-12-04T04:38:38;-0.50;99.90
14737;DHT22;7459;53.590;10.062;2023-12-04T04:41:04;-0.50;99.90
14737;DHT22;7459;53.590;10.062;2023-12-04T04:43:30;-0.50;99.90
14737;DHT22;7459;53.590;10.062;2023-12-04T04:45:56;-0.50;99.90
14737;DHT22;7459;53.590;10.062;2023-12-04T04:48:21;-0.50;99.90
14737;DHT22;7459;53.590;10.062;2023-12-04T04:50:47;-0.50;99.90
14737;DHT22;7459;53.590;10.062;2023-12-04T04:53:13;-0.50;99.90
14737;DHT22;7459;53.590;10.062;2023-12-04T04:55:38;-0.50;99.90
14737;DHT22;7459;53.590;10.062;2023-12-04T04:58:04;-0.50;99.90
14737;DHT22;7459;53.590;10.062;2023-12-04T05:00:30;-0.50;99.90
14737;DHT22;7459;53.590;10.062;2023-12-04T05:02:55;-0.50;99.90
14737;DHT22;7459;53.590;10.062;2023-12-04T05:05:21;-0.50;99.90
14737;DHT22;7459;53.590;10.062;2023-12-04T05:07:47;-0.50;99.90
14737;DHT22;7459;53.590;10.062;2023-12-04T05:10:12;-0.50;99.90
14737;DHT22;7459;53.590;10.062;2023-12-04T05:12:38;-0.50;99.90
14737;DHT22;7459;53.590;10.062;2023-12-04T05:15:04;-0.50;99.90
14737;DHT22;7459;53.590;10.062;2023-12-04T05:17:30;-0.50;99.90
14737;DHT22;7459;53.590;10.062;2023-12-04T05:19:56;-0.60;99.90
14737;DHT22;7459;53.590;10.062;2023-12-04T05:22:22;-0.60;99.90
14737;DHT22;7459;53.590;10.062;2023-12-04T05:24:47;-0.50;99.90
14737;DHT22;7459;53.590;10.062;2023-12-04T05:27:13;-0.50;99.90
14737;DHT22;7459;53.590;10.062;2023-12-04T05:29:39;-0.50;99.90
14737;DHT22;7459;53.590;10.062;2023-12-04T05:32:04;-0.50;99.90
14737;DHT22;7459;53.590;10.062;2023-12-04T05:34:30;-0.50;99.90
14737;DHT22;7459;53.590;10.062;2023-12-04T05:36:56;-0.50;99.90
14737;DHT22;7459;53.590;10.062;2023-12-04T05:39:22;-0.50;99.90
14737;DHT22;7459;53.590;10.062;2023-12-04T05:41:47;-0.50;99.90
14737;DHT22;7459;53.590;10.062;2023-12-04T05:44:13;-0.50;99.90
14737;DHT22;7459;53.590;10.062;2023-12-04T05:46:39;-0.50;99.90
14737;DHT22;7459;53.590;10.062;2023-12-04T05:49:05;-0.50;99.90
14737;DHT22;7459;53.590;10.062;2023-12-04T05:51:30;-0.50;99.90
14737;DHT22;7459;53.590;10.062;2023-12-04T05:53:56;-0.50;99.90
14737;DHT22;7459;53.590;10.062;2023-12-04T05:56:22;-0.50;99.90
14737;DHT22;7459;53.590;10.062;2023-12-04T05:58:47;-0.50;99.90
14737;DHT22;7459;53.590;10.062;2023-12-04T06:01:14;-0.50;99.90
14737;DHT22;7459;53.590;10.062;2023-12-04T06:03:40;-0.50;99.90
14737;DHT22;7459;53.590;10.062;2023-12-04T06:06:06;-0.50;99.90
14737;DHT22;7459;53.590;10.062;2023-12-04T06:08:32;-0.50;99.90
14737;DHT22;7459;53.590;10.062;2023-12-04T06:10:58;-0.50;99.90
14737;DHT22;7459;53.590;10.062;2023-12-04T06:13:23;-0.50;99.90
14737;DHT22;7459;53.590;10.062;2023-12-04T06:15:49;-0.50;99.90
14737;DHT22;7459;53.590;10.062;2023-12-04T06:18:15;-0.50;99.90
14737;DHT22;7459;53.590;10.062;2023-12-04T06:20:40;-0.50;99.90
14737;DHT22;7459;53.590;10.062;2023-12-04T06:23:06;-0.50;99.90
14737;DHT22;7459;53.590;10.062;2023-12-04T06:25:32;-0.50;99.90
14737;DHT22;7459;53.590;10.062;2023-12-04T06:27:58;-0.50;99.90
14737;DHT22;7459;53.590;10.062;2023-12-04T06:30:24;-0.50;99.90
14737;DHT22;7459;53.590;10.062;2023-12-04T06:32:50;-0.50;99.90
14737;DHT22;7459;53.590;10.062;2023-12-04T06:35:16;-0.50;99.90
14737;DHT22;7459;53.590;10.062;2023-12-04T06:37:43;-0.40;99.90
14737;DHT22;7459;53.590;10.062;2023-12-04T06:40:09;-0.40;99.90
14737;DHT22;7459;53.590;10.062;2023-12-04T06:42:37;-0.40;99.90
14737;DHT22;7459;53.590;10.062;2023-12-04T06:45:03;-0.40;99.90
14737;DHT22;7459;53.590;10.062;2023-12-04T06:47:31;-0.40;99.90
14737;DHT22;7459;53.590;10.062;2023-12-04T06:49:59;-0.40;99.90
14737;DHT22;7459;53.590;10.062;2023-12-04T06:52:25;-0.40;99.90
14737;DHT22;7459;53.590;10.062;2023-12-04T06:54:50;-0.40;99.90
14737;DHT22;7459;53.590;10.062;2023-12-04T06:57:16;-0.40;99.90
14737;DHT22;7459;53.590;10.062;2023-12-04T06:59:42;-0.40;99.90
14737;DHT22;7459;53.590;10.062;2023-12-04T07:02:08;-0.40;99.90
14737;DHT22;7459;53.590;10.062;2023-12-04T07:04:34;-0.40;99.90
14737;DHT22;7459;53.590;10.062;2023-12-04T07:07:00;-0.40;99.90
14737;DHT22;7459;53.590;10.062;2023-12-04T07:09:33;-0.40;99.90
14737;DHT22;7459;53.590;10.062;2023-12-04T07:12:00;-0.40;99.90
14737;DHT22;7459;53.590;10.062;2023-12-04T07:14:26;-0.40;99.90
14737;DHT22;7459;53.590;10.062;2023-12-04T07:16:52;-0.40;99.90
14737;DHT22;7459;53.590;10.062;2023-12-04T07:19:17;-0.40;99.90
14737;DHT22;7459;53.590;10.062;2023-12-04T07:21:43;-0.40;99.90
14737;DHT22;7459;53.590;10.062;2023-12-04T07:24:09;-0.40;99.90
14737;DHT22;7459;53.590;10.062;2023-12-04T07:26:35;-0.40;99.90
14737;DHT22;7459;53.590;10.062;2023-12-04T07:29:02;-0.40;99.90
14737;DHT22;7459;53.590;10.062;2023-12-04T07:31:28;-0.40;99.90
14737;DHT22;7459;53.590;10.062;2023-12-04T07:33:54;-0.40;99.90
14737;DHT22;7459;53.590;10.062;2023-12-04T07:36:21;-0.40;99.90
14737;DHT22;7459;53.590;10.062;2023-12-04T07:38:47;-0.40;99.90
14737;DHT22;7459;53.590;10.062;2023-12-04T07:41:14;-0.30;99.90
14737;DHT22;7459;53.590;10.062;2023-12-04T07:43:40;-0.40;99.90
14737;DHT22;7459;53.590;10.062;2023-12-04T07:46:06;-0.40;99.90
14737;DHT22;7459;53.590;10.062;2023-12-04T07:48:32;-0.40;99.90
14737;DHT22;7459;53.590;10.062;2023-12-04T07:50:58;-0.40;99.90
14737;DHT22;7459;53.590;10.062;2023-12-04T07:53:23;-0.40;99.90
14737;DHT22;7459;53.590;10.062;2023-12-04T07:55:49;-0.40;99.90
14737;DHT22;7459;53.590;10.062;2023-12-04T07:58:17;-0.40;99.90
14737;DHT22;7459;53.590;10.062;2023-12-04T08:00:44;-0.40;99.90
14737;DHT22;7459;53.590;10.062;2023-12-04T08:03:10;-0.40;99.90
14737;DHT22;7459;53.590;10.062;2023-12-04T08:05:35;-0.40;99.90
14737;DHT22;7459;53.590;10.062;2023-12-04T08:08:01;-0.40;99.90
14737;DHT22;7459;53.590;10.062;2023-12-04T08:10:27;-0.40;99.90
14737;DHT22;7459;53.590;10.062;2023-12-04T08:12:52;-0.30;99.90
14737;DHT22;7459;53.590;10.062;2023-12-04T08:15:18;-0.30;99.90
14737;DHT22;7459;53.590;10.062;2023-12-04T08:17:44;-0.40;99.90
14737;DHT22;7459;53.590;10.062;2023-12-04T08:20:10;-0.30;99.90
14737;DHT22;7459;53.590;10.062;2023-12-04T08:22:42;-0.40;99.90
14737;DHT22;7459;53.590;10.062;2023-12-04T08:25:11;-0.30;99.90
14737;DHT22;7459;53.590;10.062;2023-12-04T08:27:37;-0.30;99.90
14737;DHT22;7459;53.590;10.062;2023-12-04T08:30:06;-0.30;99.90
14737;DHT22;7459;53.590;10.062;2023-12-04T08:32:32;-0.30;99.90
14737;DHT22;7459;53.590;10.062;2023-12-04T08:34:58;-0.30;99.90
14737;DHT22;7459;53.590;10.062;2023-12-04T08:37:23;-0.30;99.90
14737;DHT22;7459;53.590;10.062;2023-12-04T08:39:49;-0.30;99.90
14737;DHT22;7459;53.590;10.062;2023-12-04T08:42:15;-0.30;99.90
14737;DHT22;7459;53.590;10.062;2023-12-04T08:44:40;-0.20;99.90
14737;DHT22;7459;53.590;10.062;2023-12-04T08:47:06;-0.20;99.90
14737;DHT22;7459;53.590;10.062;2023-12-04T08:49:32;-0.20;99.90
14737;DHT22;7459;53.590;10.062;2023-12-04T08:51:59;-0.20;99.90
14737;DHT22;7459;53.590;10.062;2023-12-04T08:54:25;-0.20;99.90
14737;DHT22;7459;53.590;10.062;2023-12-04T08:56:50;-0.30;99.90
14737;DHT22;7459;53.590;10.062;2023-12-04T08:59:16;-0.20;99.90
14737;DHT22;7459;53.590;10.062;2023-12-04T09:01:43;-0.20;99.90
14737;DHT22;7459;53.590;10.062;2023-12-04T09:04:09;-0.20;99.90
14737;DHT22;7459;53.590;10.062;2023-12-04T09:06:35;-0.20;99.90
14737;DHT22;7459;53.590;10.062;2023-12-04T09:09:01;-0.10;99.90
14737;DHT22;7459;53.590;10.062;2023-12-04T09:11:27;-0.10;99.90
14737;DHT22;7459;53.590;10.062;2023-12-04T09:13:54;-0.20;99.90
14737;DHT22;7459;53.590;10.062;2023-12-04T09:16:20;-0.20;99.90
14737;DHT22;7459;53.590;10.062;2023-12-04T09:18:45;-0.20;99.90
14737;DHT22;7459;53.590;10.062;2023-12-04T09:21:12;-0.20;99.90
14737;DHT22;7459;53.590;10.062;2023-12-04T09:23:37;-0.20;99.90
14737;DHT22;7459;53.590;10.062;2023-12-04T09:26:03;-0.20;99.90
14737;DHT22;7459;53.590;10.062;2023-12-04T09:28:29;-0.20;99.90
14737;DHT22;7459;53.590;10.062;2023-12-04T09:30:55;-0.10;99.90
14737;DHT22;7459;53.590;10.062;2023-12-04T09:33:20;0.00;99.90
14737;DHT22;7459;53.590;10.062;2023-12-04T09:35:46;0.10;99.90
14737;DHT22;7459;53.590;10.062;2023-12-04T09:38:12;0.10;99.90
14737;DHT22;7459;53.590;10.062;2023-12-04T09:40:38;0.10;99.90
14737;DHT22;7459;53.590;10.062;2023-12-04T09:43:05;0.10;99.90
14737;DHT22;7459;53.590;10.062;2023-12-04T09:45:32;0.00;99.90
14737;DHT22;7459;53.590;10.062;2023-12-04T09:47:58;0.00;99.90
14737;DHT22;7459;53.590;10.062;2023-12-04T09:50:25;0.00;99.90
14737;DHT22;7459;53.590;10.062;2023-12-04T09:52:51;-0.10;99.90
14737;DHT22;7459;53.590;10.062;2023-12-04T09:55:18;0.00;99.90
14737;DHT22;7459;53.590;10.062;2023-12-04T09:57:45;-0.10;99.90
14737;DHT22;7459;53.590;10.062;2023-12-04T10:00:13;-0.10;99.90
14737;DHT22;7459;53.590;10.062;2023-12-04T10:02:40;-0.10;99.90
14737;DHT22;7459;53.590;10.062;2023-12-04T10:05:07;-0.10;99.90
14737;DHT22;7459;53.590;10.062;2023-12-04T10:07:34;-0.10;99.90
14737;DHT22;7459;53.590;10.062;2023-12-04T10:10:00;-0.20;99.90
14737;DHT22;7459;53.590;10.062;2023-12-04T10:12:27;-0.10;99.90
14737;DHT22;7459;53.590;10.062;2023-12-04T10:15:22;-0.10;99.90
14737;DHT22;7459;53.590;10.062;2023-12-04T10:17:48;-0.10;99.90
14737;DHT22;7459;53.590;10.062;2023-12-04T10:20:15;-0.10;99.90
14737;DHT22;7459;53.590;10.062;2023-12-04T10:22:56;-0.20;99.90
14737;DHT22;7459;53.590;10.062;2023-12-04T10:25:29;-0.10;99.90
14737;DHT22;7459;53.590;10.062;2023-12-04T10:28:08;-0.10;99.90
14737;DHT22;7459;53.590;10.062;2023-12-04T10:30:36;-0.10;99.90
14737;DHT22;7459;53.590;10.062;2023-12-04T10:33:03;-0.10;99.90
14737;DHT22;7459;53.590;10.062;2023-12-04T10:35:31;-0.10;99.90
14737;DHT22;7459;53.590;10.062;2023-12-04T10:37:59;-0.10;99.90
14737;DHT22;7459;53.590;10.062;2023-12-04T10:40:29;-0.10;99.90
14737;DHT22;7459;53.590;10.062;2023-12-04T10:43:17;-0.10;99.90
14737;DHT22;7459;53.590;10.062;2023-12-04T10:45:47;0.00;99.90
14737;DHT22;7459;53.590;10.062;2023-12-04T10:48:15;-0.10;99.90
14737;DHT22;7459;53.590;10.062;2023-12-04T10:50:44;0.00;99.90
14737;DHT22;7459;53.590;10.062;2023-12-04T10:53:12;0.00;99.90
14737;DHT22;7459;53.590;10.062;2023-12-04T10:55:39;0.00;99.90
14737;DHT22;7459;53.590;10.062;2023-12-04T10:58:10;0.00;99.90
14737;DHT22;7459;53.590;10.062;2023-12-04T11:00:44;0.00;99.90
14737;DHT22;7459;53.590;10.062;2023-12-04T11:03:21;0.00;99.90
14737;DHT22;7459;53.590;10.062;2023-12-04T11:06:00;0.00;99.90
14737;DHT22;7459;53.590;10.062;2023-12-04T11:08:29;0.00;99.90
14737;DHT22;7459;53.590;10.062;2023-12-04T11:11:03;0.10;99.90
14737;DHT22;7459;53.590;10.062;2023-12-04T11:13:35;0.10;99.90
14737;DHT22;7459;53.590;10.062;2023-12-04T11:16:18;0.10;99.90
14737;DHT22;7459;53.590;10.062;2023-12-04T11:18:52;0.00;99.90
14737;DHT22;7459;53.590;10.062;2023-12-04T11:21:20;0.00;99.90
14737;DHT22;7459;53.590;10.062;2023-12-04T11:23:47;0.00;99.90
14737;DHT22;7459;53.590;10.062;2023-12-04T11:26:14;0.00;99.90
14737;DHT22;7459;53.590;10.062;2023-12-04T11:28:40;0.00;99.90
14737;DHT22;7459;53.590;10.062;2023-12-04T11:31:07;0.00;99.90
14737;DHT22;7459;53.590;10.062;2023-12-04T11:33:38;0.00;99.90
14737;DHT22;7459;53.590;10.062;2023-12-04T11:36:12;0.00;99.90
14737;DHT22;7459;53.590;10.062;2023-12-04T11:38:44;0.00;99.90
14737;DHT22;7459;53.590;10.062;2023-12-04T11:41:21;0.00;99.90
14737;DHT22;7459;53.590;10.062;2023-12-04T11:43:48;0.10;99.90
14737;DHT22;7459;53.590;10.062;2023-12-04T11:46:19;0.10;99.90
14737;DHT22;7459;53.590;10.062;2023-12-04T11:48:49;0.10;99.90
14737;DHT22;7459;53.590;10.062;2023-12-04T11:54:17;0.10;99.90
14737;DHT22;7459;53.590;10.062;2023-12-04T11:59:39;0.10;99.90
14737;DHT22;7459;53.590;10.062;2023-12-04T12:02:08;0.10;99.90
14737;DHT22;7459;53.590;10.062;2023-12-04T12:04:34;0.10;99.90
14737;DHT22;7459;53.590;10.062;2023-12-04T12:07:00;0.10;99.90
14737;DHT22;7459;53.590;10.062;2023-12-04T12:09:28;0.10;99.90
14737;DHT22;7459;53.590;10.062;2023-12-04T12:11:54;0.10;99.90
14737;DHT22;7459;53.590;10.062;2023-12-04T12:14:21;0.10;99.90
14737;DHT22;7459;53.590;10.062;2023-12-04T12:16:47;0.10;99.90
14737;DHT22;7459;53.590;10.062;2023-12-04T12:19:13;0.10;99.90
14737;DHT22;7459;53.590;10.062;2023-12-04T12:21:38;0.10;99.90
14737;DHT22;7459;53.590;10.062;2023-12-04T12:24:06;0.10;99.90
14737;DHT22;7459;53.590;10.062;2023-12-04T12:26:32;0.10;99.90
14737;DHT22;7459;53.590;10.062;2023-12-04T12:28:58;0.20;99.90
14737;DHT22;7459;53.590;10.062;2023-12-04T12:31:24;0.20;99.90
14737;DHT22;7459;53.590;10.062;2023-12-04T12:33:50;0.20;99.90
14737;DHT22;7459;53.590;10.062;2023-12-04T12:36:17;0.20;99.90
14737;DHT22;7459;53.590;10.062;2023-12-04T12:38:44;0.20;99.90
14737;DHT22;7459;53.590;10.062;2023-12-04T12:41:16;0.20;99.90
14737;DHT22;7459;53.590;10.062;2023-12-04T12:43:43;0.20;99.90
14737;DHT22;7459;53.590;10.062;2023-12-04T12:46:10;0.30;99.90
14737;DHT22;7459;53.590;10.062;2023-12-04T12:48:36;0.20;99.90
14737;DHT22;7459;53.590;10.062;2023-12-04T12:51:05;0.20;99.90
14737;DHT22;7459;53.590;10.062;2023-12-04T12:53:34;0.30;99.90
14737;DHT22;7459;53.590;10.062;2023-12-04T12:56:00;0.20;99.90
14737;DHT22;7459;53.590;10.062;2023-12-04T12:58:27;0.20;99.90
14737;DHT22;7459;53.590;10.062;2023-12-04T13:00:53;0.20;99.90
14737;DHT22;7459;53.590;10.062;2023-12-04T13:03:19;0.20;99.90
14737;DHT22;7459;53.590;10.062;2023-12-04T13:05:45;0.20;99.90
14737;DHT22;7459;53.590;10.062;2023-12-04T13:08:11;0.20;99.90
14737;DHT22;7459;53.590;10.062;2023-12-04T13:10:38;0.30;99.90
14737;DHT22;7459;53.590;10.062;2023-12-04T13:13:13;0.30;99.90
14737;DHT22;7459;53.590;10.062;2023-12-04T13:15:39;0.30;99.90
14737;DHT22;7459;53.590;10.062;2023-12-04T13:18:06;0.30;99.90
14737;DHT22;7459;53.590;10.062;2023-12-04T13:20:32;0.30;99.90
14737;DHT22;7459;53.590;10.062;2023-12-04T13:22:59;0.30;99.90
14737;DHT22;7459;53.590;10.062;2023-12-04T13:25:25;0.30;99.90
14737;DHT22;7459;53.590;10.062;2023-12-04T13:27:50;0.40;99.90
14737;DHT22;7459;53.590;10.062;2023-12-04T13:30:16;0.40;99.90
14737;DHT22;7459;53.590;10.062;2023-12-04T13:32:42;0.40;99.90
14737;DHT22;7459;53.590;10.062;2023-12-04T13:35:08;0.40;99.90
14737;DHT22;7459;53.590;10.062;2023-12-04T13:37:34;0.40;99.90
14737;DHT22;7459;53.590;10.062;2023-12-04T13:40:02;0.40;99.90
14737;DHT22;7459;53.590;10.062;2023-12-04T13:42:41;0.40;99.90
14737;DHT22;7459;53.590;10.062;2023-12-04T13:45:26;0.40;99.90
14737;DHT22;7459;53.590;10.062;2023-12-04T13:47:51;0.40;99.90
14737;DHT22;7459;53.590;10.062;2023-12-04T13:50:18;0.40;99.90
14737;DHT22;7459;53.590;10.062;2023-12-04T13:52:44;0.40;99.90
14737;DHT22;7459;53.590;10.062;2023-12-04T13:55:10;0.40;99.90
14737;DHT22;7459;53.590;10.062;2023-12-04T13:57:47;0.40;99.90
14737;DHT22;7459;53.590;10.062;2023-12-04T14:00:36;0.40;99.90
14737;DHT22;7459;53.590;10.062;2023-12-04T14:03:02;0.40;99.90
14737;DHT22;7459;53.590;10.062;2023-12-04T14:05:35;0.40;99.90
14737;DHT22;7459;53.590;10.062;2023-12-04T14:08:01;0.40;99.90
14737;DHT22;7459;53.590;10.062;2023-12-04T14:10:27;0.40;99.90
14737;DHT22;7459;53.590;10.062;2023-12-04T14:12:56;0.40;99.90
14737;DHT22;7459;53.590;10.062;2023-12-04T14:15:21;0.40;99.90
14737;DHT22;7459;53.590;10.062;2023-12-04T14:17:47;0.40;99.90
14737;DHT22;7459;53.590;10.062;2023-12-04T14:20:13;0.40;99.90
14737;DHT22;7459;53.590;10.062;2023-12-04T14:22:43;0.40;99.90
14737;DHT22;7459;53.590;10.062;2023-12-04T14:25:10;0.40;99.90
14737;DHT22;7459;53.590;10.062;2023-12-04T14:27:36;0.30;99.90
14737;DHT22;7459;53.590;10.062;2023-12-04T14:30:08;0.40;99.90
14737;DHT22;7459;53.590;10.062;2023-12-04T14:32:35;0.30;99.90
14737;DHT22;7459;53.590;10.062;2023-12-04T14:35:03;0.40;99.90
14737;DHT22;7459;53.590;10.062;2023-12-04T14:37:29;0.40;99.90
14737;DHT22;7459;53.590;10.062;2023-12-04T14:39:55;0.40;99.90
14737;DHT22;7459;53.590;10.062;2023-12-04T14:42:21;0.40;99.90
14737;DHT22;7459;53.590;10.062;2023-12-04T14:44:46;0.30;99.90
14737;DHT22;7459;53.590;10.062;2023-12-04T14:47:12;0.40;99.90
14737;DHT22;7459;53.590;10.062;2023-12-04T14:49:38;0.30;99.90
14737;DHT22;7459;53.590;10.062;2023-12-04T14:52:04;0.30;99.90
14737;DHT22;7459;53.590;10.062;2023-12-04T14:54:32;0.30;99.90
14737;DHT22;7459;53.590;10.062;2023-12-04T14:57:20;0.30;99.90
14737;DHT22;7459;53.590;10.062;2023-12-04T14:59:51;0.30;99.90
14737;DHT22;7459;53.590;10.062;2023-12-04T15:02:53;0.30;99.90
14737;DHT22;7459;53.590;10.062;2023-12-04T15:05:37;0.30;99.90
14737;DHT22;7459;53.590;10.062;2023-12-04T15:08:38;0.30;99.90
14737;DHT22;7459;53.590;10.062;2023-12-04T15:11:22;0.20;99.90
14737;DHT22;7459;53.590;10.062;2023-12-04T15:14:19;0.20;99.90
14737;DHT22;7459;53.590;10.062;2023-12-04T15:16:57;0.20;99.90
14737;DHT22;7459;53.590;10.062;2023-12-04T15:19:39;0.20;99.90
14737;DHT22;7459;53.590;10.062;2023-12-04T15:22:22;0.20;99.90
14737;DHT22;7459;53.590;10.062;2023-12-04T15:24:48;0.30;99.90
14737;DHT22;7459;53.590;10.062;2023-12-04T15:27:14;0.30;99.90
14737;DHT22;7459;53.590;10.062;2023-12-04T15:29:39;0.30;99.90
14737;DHT22;7459;53.590;10.062;2023-12-04T15:32:06;0.30;99.90
14737;DHT22;7459;53.590;10.062;2023-12-04T15:34:32;0.30;99.90
14737;DHT22;7459;53.590;10.062;2023-12-04T15:36:58;0.30;99.90
14737;DHT22;7459;53.590;10.062;2023-12-04T15:39:24;0.30;99.90
14737;DHT22;7459;53.590;10.062;2023-12-04T15:41:49;0.30;99.90
14737;DHT22;7459;53.590;10.062;2023-12-04T15:44:15;0.30;99.90
14737;DHT22;7459;53.590;10.062;2023-12-04T15:46:41;0.30;99.90